Time;durP1;ratioP1;P1;durP2;ratioP2;P2;SDS_P1;SDS_P2;PMS_P1;PMS_P2;Temp;Humidity;BMP_temperature;BMP_pressure;BME280_temperature;BME280_humidity;BME280_pressure;Samples;Min_cycle;Max_cycle;Signal;HPM_P1;HPM_P2
2021/11/30 00:01:58;;;;;;;;;;;8.60;56.40;;;;;;4325802;33;20025;-37
2021/11/30 00:04:29;;;;;;;;;;;8.70;56.40;;;;;;4325740;33;20010;-40
2021/11/30 00:06:55;;;;;;;;;;;8.70;56.30;;;;;;4327295;33;20160;-40
2021/11/30 00:12:06;;;;;;;;;;;8.70;56.20;;;;;;4344056;32;20120;-38
2021/11/30 00:14:32;;;;;;;;;;;8.70;56.40;;;;;;4361204;32;20017;-39
2021/11/30 00:16:58;;;;;;;;;;;8.70;56.60;;;;;;4360315;32;19986;-39
2021/11/30 00:19:25;;;;;;;;;;;8.70;56.60;;;;;;4360535;32;20075;-39
2021/11/30 00:21:51;;;;;;;;;;;8.70;56.50;;;;;;4360084;32;20017;-40
2021/11/30 00:24:17;;;;;;;;;;;8.80;56.50;;;;;;4359984;32;20044;-40
2021/11/30 00:26:43;;;;;;;;;;;8.80;56.40;;;;;;4360359;32;20061;-40
2021/11/30 00:29:10;;;;;;;;;;;8.90;56.20;;;;;;4360037;32;20422;-40
2021/11/30 00:31:36;;;;;;;;;;;8.90;56.20;;;;;;4360268;32;19970;-37
2021/11/30 00:34:02;;;;;;;;;;;9.00;56.40;;;;;;4360573;32;20340;-40
2021/11/30 00:36:28;;;;;;;;;;;9.00;56.30;;;;;;4346262;32;20422;-37
2021/11/30 00:38:54;;;;;;;;;;;9.10;56.40;;;;;;4360343;32;19993;-41
2021/11/30 00:41:20;;;;;;;;;;;9.10;56.40;;;;;;4359993;32;19966;-41
2021/11/30 00:43:48;;;;;;;;;;;9.10;56.10;;;;;;4359865;32;19966;-39
2021/11/30 00:48:40;;;;;;;;;;;9.20;55.80;;;;;;4374003;32;19991;-39
2021/11/30 00:51:13;;;;;;;;;;;9.20;55.80;;;;;;4374898;32;19981;-36
2021/11/30 00:53:41;;;;;;;;;;;9.20;55.70;;;;;;4374706;32;19986;-40
2021/11/30 00:56:08;;;;;;;;;;;9.10;55.30;;;;;;4327639;33;20004;-39
2021/11/30 00:58:35;;;;;;;;;;;9.10;55.00;;;;;;4315838;33;19990;-41
2021/11/30 01:01:01;;;;;;;;;;;9.10;55.00;;;;;;4327690;33;19968;-40
2021/11/30 01:03:27;;;;;;;;;;;9.00;55.10;;;;;;4327666;33;19998;-40
2021/11/30 01:05:53;;;;;;;;;;;8.90;55.00;;;;;;4327653;33;19974;-41
2021/11/30 01:08:19;;;;;;;;;;;8.90;55.20;;;;;;4327794;33;19975;-38
2021/11/30 01:10:46;;;;;;;;;;;8.90;55.30;;;;;;4327549;33;20056;-41
2021/11/30 01:13:12;;;;;;;;;;;8.70;55.50;;;;;;4298016;33;19978;-41
2021/11/30 01:15:39;;;;;;;;;;;8.60;55.80;;;;;;4297958;33;20017;-37
2021/11/30 01:18:05;;;;;;;;;;;8.60;56.50;;;;;;4297797;33;19971;-39
2021/11/30 01:20:31;;;;;;;;;;;8.40;57.10;;;;;;4283249;33;20085;-40
2021/11/30 01:22:57;;;;;;;;;;;8.30;57.20;;;;;;4283579;33;20426;-40
2021/11/30 01:25:24;;;;;;;;;;;8.30;57.40;;;;;;4284044;33;20062;-41
2021/11/30 01:27:50;;;;;;;;;;;8.20;57.60;;;;;;4318235;33;20192;-41
2021/11/30 01:30:16;;;;;;;;;;;8.10;58.10;;;;;;4327379;33;19978;-40
2021/11/30 01:32:43;;;;;;;;;;;8.00;58.70;;;;;;4327460;33;19991;-41
2021/11/30 01:35:10;;;;;;;;;;;8.00;59.50;;;;;;4326986;33;20060;-38
2021/11/30 01:37:37;;;;;;;;;;;7.90;59.60;;;;;;4327493;33;20004;-41
2021/11/30 01:40:05;;;;;;;;;;;7.80;59.70;;;;;;4327798;33;19982;-42
2021/11/30 01:42:33;;;;;;;;;;;7.80;59.80;;;;;;4327120;33;19979;-41
2021/11/30 01:45:06;;;;;;;;;;;7.70;59.70;;;;;;4326968;33;20198;-39
2021/11/30 01:49:59;;;;;;;;;;;7.70;59.80;;;;;;4312380;33;20495;-40
2021/11/30 01:52:25;;;;;;;;;;;7.70;59.70;;;;;;4336973;32;19986;-39
2021/11/30 01:54:51;;;;;;;;;;;7.70;59.60;;;;;;4342571;33;20399;-40
2021/11/30 01:57:20;;;;;;;;;;;7.70;59.40;;;;;;4344659;33;19986;-40
2021/11/30 01:59:46;;;;;;;;;;;7.60;59.70;;;;;;4344046;32;20383;-40
2021/11/30 02:02:12;;;;;;;;;;;7.60;59.30;;;;;;4344252;32;19979;-39
2021/11/30 02:04:39;;;;;;;;;;;7.50;59.60;;;;;;4344396;33;19978;-39
2021/11/30 02:07:07;;;;;;;;;;;7.50;59.40;;;;;;4344338;33;20474;-41
2021/11/30 02:09:34;;;;;;;;;;;7.50;59.30;;;;;;4344049;33;20417;-42
2021/11/30 02:12:00;;;;;;;;;;;7.50;59.30;;;;;;4344311;32;19975;-40
2021/11/30 02:14:26;;;;;;;;;;;7.40;59.20;;;;;;4342151;33;19958;-41
2021/11/30 02:16:53;;;;;;;;;;;7.40;59.10;;;;;;4342484;33;19974;-38
2021/11/30 02:19:19;;;;;;;;;;;7.40;59.10;;;;;;4343982;33;20004;-39
2021/11/30 02:21:45;;;;;;;;;;;7.30;59.10;;;;;;4343457;33;19962;-39
2021/11/30 02:24:12;;;;;;;;;;;7.30;59.30;;;;;;4343646;33;19959;-40
2021/11/30 02:26:39;;;;;;;;;;;7.30;59.50;;;;;;4343672;33;19970;-38
2021/11/30 02:29:06;;;;;;;;;;;7.20;59.50;;;;;;4343188;32;19969;-39
2021/11/30 02:31:35;;;;;;;;;;;7.20;59.70;;;;;;4343420;32;20548;-38
2021/11/30 02:34:04;;;;;;;;;;;7.10;59.80;;;;;;4343503;32;19981;-38
2021/11/30 02:36:53;;;;;;;;;;;7.10;60.70;;;;;;4343595;32;19963;-38
2021/11/30 02:39:18;;;;;;;;;;;7.00;61.00;;;;;;4342968;33;19974;-37
2021/11/30 02:41:45;;;;;;;;;;;7.00;61.70;;;;;;4343556;32;19971;-38
2021/11/30 02:44:12;;;;;;;;;;;7.10;61.50;;;;;;4343702;32;19986;-39
2021/11/30 02:46:41;;;;;;;;;;;7.10;60.90;;;;;;4346179;32;19967;-39
2021/11/30 02:49:09;;;;;;;;;;;7.00;60.80;;;;;;4373473;32;20013;-38
2021/11/30 02:51:37;;;;;;;;;;;7.00;60.70;;;;;;4372973;32;20046;-39
2021/11/30 02:54:07;;;;;;;;;;;6.90;61.00;;;;;;4359344;32;20439;-39
2021/11/30 02:56:41;;;;;;;;;;;6.90;61.00;;;;;;4373066;32;20075;-39
2021/11/30 02:59:07;;;;;;;;;;;6.90;60.70;;;;;;4373607;32;19973;-40
2021/11/30 03:01:34;;;;;;;;;;;6.90;60.30;;;;;;4373462;32;19966;-39
2021/11/30 03:04:00;;;;;;;;;;;6.90;60.00;;;;;;4372987;32;19972;-39
2021/11/30 03:06:26;;;;;;;;;;;6.80;60.00;;;;;;4358938;32;20395;-39
2021/11/30 03:08:52;;;;;;;;;;;6.80;60.00;;;;;;4373356;32;19969;-38
2021/11/30 03:11:19;;;;;;;;;;;6.80;59.90;;;;;;4373491;32;19974;-39
2021/11/30 03:13:45;;;;;;;;;;;6.60;60.40;;;;;;4372990;32;19969;-37
2021/11/30 03:16:11;;;;;;;;;;;6.70;60.60;;;;;;4373212;32;19966;-40
2021/11/30 03:18:37;;;;;;;;;;;6.60;60.20;;;;;;4372659;32;19978;-38
2021/11/30 03:21:04;;;;;;;;;;;6.60;60.40;;;;;;4358705;32;19966;-39
2021/11/30 03:23:31;;;;;;;;;;;6.60;60.30;;;;;;4373393;32;20111;-39
2021/11/30 03:25:57;;;;;;;;;;;6.50;60.80;;;;;;4372756;32;19971;-39
2021/11/30 03:28:23;;;;;;;;;;;6.50;61.00;;;;;;4372865;32;19989;-35
2021/11/30 03:30:57;;;;;;;;;;;6.50;61.10;;;;;;4372530;32;20489;-37
2021/11/30 03:36:07;;;;;;;;;;;6.40;60.80;;;;;;4372751;32;19998;-37
2021/11/30 03:38:34;;;;;;;;;;;6.40;60.30;;;;;;4372959;32;19965;-37
2021/11/30 03:41:00;;;;;;;;;;;6.40;60.50;;;;;;4359707;32;20049;-38
2021/11/30 03:43:26;;;;;;;;;;;6.40;60.00;;;;;;4375938;32;20042;-37
2021/11/30 03:45:52;;;;;;;;;;;6.40;60.00;;;;;;4375514;32;20417;-37
2021/11/30 03:48:19;;;;;;;;;;;6.40;59.50;;;;;;4364417;32;19969;-36
2021/11/30 03:50:45;;;;;;;;;;;6.40;59.30;;;;;;4360980;32;20032;-36
2021/11/30 03:53:11;;;;;;;;;;;6.40;58.80;;;;;;4347359;32;19972;-36
2021/11/30 03:55:37;;;;;;;;;;;6.30;58.50;;;;;;4360680;32;20074;-38
2021/11/30 03:58:03;;;;;;;;;;;6.40;58.30;;;;;;4360423;32;20407;-37
2021/11/30 04:00:30;;;;;;;;;;;6.40;58.20;;;;;;4346990;32;19973;-38
2021/11/30 04:02:57;;;;;;;;;;;6.40;57.70;;;;;;4343004;33;19970;-37
2021/11/30 04:05:23;;;;;;;;;;;6.40;57.20;;;;;;4343084;33;19985;-37
2021/11/30 04:07:49;;;;;;;;;;;6.40;56.60;;;;;;4343298;33;20028;-37
2021/11/30 04:10:15;;;;;;;;;;;6.50;56.40;;;;;;4343068;33;19984;-38
2021/11/30 04:12:42;;;;;;;;;;;6.50;55.50;;;;;;4342886;33;20507;-39
2021/11/30 04:15:08;;;;;;;;;;;6.50;55.20;;;;;;4330451;33;21145;-39
2021/11/30 04:17:39;;;;;;;;;;;6.50;54.90;;;;;;4330707;33;20370;-38
2021/11/30 04:20:09;;;;;;;;;;;6.50;54.60;;;;;;4343322;33;20489;-39
2021/11/30 04:22:36;;;;;;;;;;;6.50;54.60;;;;;;4342490;33;19966;-39
2021/11/30 04:25:04;;;;;;;;;;;6.60;54.40;;;;;;4343291;33;19985;-39
2021/11/30 04:27:31;;;;;;;;;;;6.60;54.50;;;;;;4343256;33;19982;-38
2021/11/30 04:29:58;;;;;;;;;;;6.60;54.30;;;;;;4343507;33;20402;-38
2021/11/30 04:32:24;;;;;;;;;;;6.70;54.40;;;;;;4342602;33;20046;-37
2021/11/30 04:34:51;;;;;;;;;;;6.80;54.30;;;;;;4344606;32;19974;-36
2021/11/30 04:37:17;;;;;;;;;;;6.80;54.10;;;;;;4360236;32;20055;-38
2021/11/30 04:39:43;;;;;;;;;;;6.80;54.10;;;;;;4360183;32;19970;-39
2021/11/30 04:42:09;;;;;;;;;;;6.90;54.00;;;;;;4359869;32;20596;-38
2021/11/30 04:44:38;;;;;;;;;;;6.90;54.20;;;;;;4359833;32;19974;-39
2021/11/30 04:47:10;;;;;;;;;;;6.90;54.40;;;;;;4338508;33;20415;-38
2021/11/30 04:49:56;;;;;;;;;;;6.90;54.60;;;;;;4327937;33;20426;-39
2021/11/30 04:52:22;;;;;;;;;;;6.90;55.60;;;;;;4327856;33;19982;-37
2021/11/30 04:54:49;;;;;;;;;;;6.90;55.20;;;;;;4328177;33;19975;-38
2021/11/30 04:57:15;;;;;;;;;;;6.90;55.70;;;;;;4327977;33;20439;-37
2021/11/30 04:59:41;;;;;;;;;;;6.90;56.00;;;;;;4327350;33;19995;-36
2021/11/30 05:02:08;;;;;;;;;;;6.90;56.20;;;;;;4327577;33;19979;-40
2021/11/30 05:04:34;;;;;;;;;;;6.90;56.50;;;;;;4315602;33;20436;-38
2021/11/30 05:07:01;;;;;;;;;;;6.80;57.40;;;;;;4315393;33;19982;-40
2021/11/30 05:09:27;;;;;;;;;;;6.80;57.90;;;;;;4327121;33;20110;-40
2021/11/30 05:11:53;;;;;;;;;;;6.70;58.40;;;;;;4327326;33;19967;-40
2021/11/30 05:14:19;;;;;;;;;;;6.60;58.60;;;;;;4327859;33;19985;-41
2021/11/30 05:16:46;;;;;;;;;;;6.60;59.10;;;;;;4327375;33;19986;-44
2021/11/30 05:19:12;;;;;;;;;;;6.50;59.90;;;;;;4344020;33;20022;-42
2021/11/30 05:21:38;;;;;;;;;;;6.50;60.50;;;;;;4344431;32;19955;-39
2021/11/30 05:24:07;;;;;;;;;;;6.60;61.30;;;;;;4344438;32;20031;-39
2021/11/30 05:26:33;;;;;;;;;;;6.60;61.50;;;;;;4344708;33;19996;-38
2021/11/30 05:28:59;;;;;;;;;;;6.60;61.80;;;;;;4344644;32;20415;-39
2021/11/30 05:31:25;;;;;;;;;;;6.70;62.00;;;;;;4330876;33;20037;-37
2021/11/30 05:33:52;;;;;;;;;;;6.80;62.40;;;;;;4330457;33;19989;-39
2021/11/30 05:36:18;;;;;;;;;;;6.80;62.70;;;;;;4331275;33;19986;-41
2021/11/30 05:38:44;;;;;;;;;;;6.90;63.40;;;;;;4344592;32;19967;-41
2021/11/30 05:41:11;;;;;;;;;;;7.00;63.40;;;;;;4344569;32;19967;-38
2021/11/30 05:43:37;;;;;;;;;;;7.00;63.20;;;;;;4344255;33;19984;-40
2021/11/30 05:46:03;;;;;;;;;;;7.10;63.40;;;;;;4326595;33;19989;-41
2021/11/30 05:48:30;;;;;;;;;;;7.00;62.90;;;;;;4339455;32;20047;-41
2021/11/30 05:50:57;;;;;;;;;;;7.00;62.70;;;;;;4356247;32;19966;-39
2021/11/30 05:53:23;;;;;;;;;;;6.90;62.60;;;;;;4344588;32;19973;-40
2021/11/30 05:55:54;;;;;;;;;;;6.90;62.70;;;;;;4356737;32;19993;-42
2021/11/30 05:58:20;;;;;;;;;;;6.90;62.70;;;;;;4344276;32;20541;-42
2021/11/30 06:00:48;;;;;;;;;;;6.90;62.60;;;;;;4356592;32;20081;-41
2021/11/30 06:03:55;;;;;;;;;;;6.80;62.70;;;;;;4356531;32;19990;-41
2021/11/30 06:06:05;;;;;;;;;;;6.70;62.70;;;;;;4354237;32;19985;-42
2021/11/30 06:08:31;;;;;;;;;;;6.70;62.80;;;;;;4356475;32;19989;-40
2021/11/30 06:10:57;;;;;;;;;;;6.70;63.00;;;;;;4356112;32;19986;-39
2021/11/30 06:13:24;;;;;;;;;;;6.60;63.20;;;;;;4356448;32;19994;-42
2021/11/30 06:15:50;;;;;;;;;;;6.60;63.40;;;;;;4344243;32;19982;-40
2021/11/30 06:18:16;;;;;;;;;;;6.70;63.80;;;;;;4356193;32;20006;-39
2021/11/30 06:20:42;;;;;;;;;;;6.70;64.00;;;;;;4356173;32;20054;-39
2021/11/30 06:23:08;;;;;;;;;;;6.70;64.00;;;;;;4362065;32;19970;-39
2021/11/30 06:25:35;;;;;;;;;;;6.70;64.00;;;;;;4373617;32;20399;-39
2021/11/30 06:28:01;;;;;;;;;;;6.80;63.90;;;;;;4373581;32;20013;-38
2021/11/30 06:30:27;;;;;;;;;;;6.90;63.90;;;;;;4373565;32;19992;-38
2021/11/30 06:32:53;;;;;;;;;;;6.90;63.90;;;;;;4373391;32;20479;-38
2021/11/30 06:35:20;;;;;;;;;;;7.00;64.20;;;;;;4373134;32;20025;-38
2021/11/30 06:37:46;;;;;;;;;;;7.00;64.30;;;;;;4373069;32;20464;-38
2021/11/30 06:40:12;;;;;;;;;;;7.00;64.50;;;;;;4359608;32;19966;-39
2021/11/30 06:42:39;;;;;;;;;;;7.10;64.50;;;;;;4359464;32;19989;-38
2021/11/30 06:45:05;;;;;;;;;;;7.10;64.60;;;;;;4373732;32;19974;-40
2021/11/30 06:47:32;;;;;;;;;;;7.20;64.50;;;;;;4366079;32;19990;-41
2021/11/30 06:49:58;;;;;;;;;;;7.20;64.10;;;;;;4358391;32;20017;-40
2021/11/30 06:52:24;;;;;;;;;;;7.20;63.70;;;;;;4344453;32;19968;-38
2021/11/30 06:54:54;;;;;;;;;;;7.20;63.60;;;;;;4358356;32;20012;-39
2021/11/30 06:57:21;;;;;;;;;;;7.20;63.40;;;;;;4357969;32;19985;-39
2021/11/30 06:59:48;;;;;;;;;;;7.10;63.30;;;;;;4357758;32;20532;-36
2021/11/30 07:02:15;;;;;;;;;;;7.10;63.20;;;;;;4344346;32;20046;-37
2021/11/30 07:04:46;;;;;;;;;;;7.10;63.10;;;;;;4357907;32;20071;-36
2021/11/30 07:15:12;;;;;;;;;;;7.00;63.30;;;;;;4325743;33;19998;-36
2021/11/30 07:17:39;;;;;;;;;;;7.00;63.40;;;;;;4328764;33;20484;-35
2021/11/30 07:20:06;;;;;;;;;;;7.00;63.40;;;;;;4328895;33;20043;-36
2021/11/30 07:22:32;;;;;;;;;;;7.00;63.40;;;;;;4328809;33;19971;-38
2021/11/30 07:24:58;;;;;;;;;;;6.90;63.40;;;;;;4329221;33;19968;-37
2021/11/30 07:27:25;;;;;;;;;;;7.00;63.40;;;;;;4329032;33;20613;-39
2021/11/30 07:29:51;;;;;;;;;;;7.00;63.30;;;;;;4299290;33;20128;-39
2021/11/30 07:32:17;;;;;;;;;;;7.00;63.40;;;;;;4299350;33;20009;-38
2021/11/30 07:34:43;;;;;;;;;;;7.10;63.60;;;;;;4299864;33;19972;-35
2021/11/30 07:37:10;;;;;;;;;;;7.10;63.40;;;;;;4299623;33;20043;-36
2021/11/30 07:39:36;;;;;;;;;;;7.20;63.20;;;;;;4299252;33;20429;-35
2021/11/30 07:42:02;;;;;;;;;;;7.20;63.10;;;;;;4299184;33;19968;-35
2021/11/30 07:44:28;;;;;;;;;;;7.20;63.10;;;;;;4299330;33;20396;-34
2021/11/30 07:46:55;;;;;;;;;;;7.30;63.00;;;;;;4296400;33;19964;-35
2021/11/30 07:49:21;;;;;;;;;;;7.30;63.00;;;;;;4273032;33;20028;-35
2021/11/30 07:51:47;;;;;;;;;;;7.30;63.00;;;;;;4302073;33;20002;-36
2021/11/30 07:54:14;;;;;;;;;;;7.30;63.10;;;;;;4314183;33;20443;-36
2021/11/30 07:56:40;;;;;;;;;;;7.30;63.10;;;;;;4313887;33;20472;-35
2021/11/30 07:59:08;;;;;;;;;;;7.30;63.10;;;;;;4301568;33;19997;-37
2021/11/30 08:01:34;;;;;;;;;;;7.30;63.20;;;;;;4313830;33;20094;-36
2021/11/30 08:04:00;;;;;;;;;;;7.30;63.20;;;;;;4313988;33;20050;-36
2021/11/30 08:06:26;;;;;;;;;;;7.20;63.40;;;;;;4316259;33;20050;-36
2021/11/30 08:08:55;;;;;;;;;;;7.20;63.50;;;;;;4329106;33;19963;-36
2021/11/30 08:11:21;;;;;;;;;;;7.20;63.50;;;;;;4330929;33;20004;-35
2021/11/30 08:13:47;;;;;;;;;;;7.20;63.50;;;;;;4330697;33;20372;-36
2021/11/30 08:16:13;;;;;;;;;;;7.20;63.30;;;;;;4313253;33;19979;-38
2021/11/30 08:18:40;;;;;;;;;;;7.20;63.30;;;;;;4313653;33;19970;-38
2021/11/30 08:21:06;;;;;;;;;;;7.10;63.20;;;;;;4315568;33;20094;-38
2021/11/30 08:23:33;;;;;;;;;;;7.10;63.30;;;;;;4316044;33;19971;-39
2021/11/30 08:25:59;;;;;;;;;;;7.00;63.40;;;;;;4328696;33;20006;-40
2021/11/30 08:28:25;;;;;;;;;;;7.00;63.60;;;;;;4327606;33;19981;-37
2021/11/30 08:30:51;;;;;;;;;;;6.90;63.60;;;;;;4327943;33;20078;-36
2021/11/30 08:33:18;;;;;;;;;;;6.90;63.80;;;;;;4327835;33;20080;-37
2021/11/30 08:35:45;;;;;;;;;;;6.80;63.90;;;;;;4328177;33;19967;-38
2021/11/30 08:38:11;;;;;;;;;;;6.70;63.90;;;;;;4315734;33;19983;-38
2021/11/30 08:40:37;;;;;;;;;;;6.70;64.10;;;;;;4327470;33;20436;-39
2021/11/30 08:43:03;;;;;;;;;;;6.60;64.20;;;;;;4316018;33;20014;-37
2021/11/30 08:48:03;;;;;;;19.63;7.50;;;5.30;72.90;;;;;;3838922;37;20040;-51
2021/11/30 08:50:30;;;;;;;13.60;6.73;;;3.90;76.90;;;;;;4392128;32;20141;-42
2021/11/30 08:52:57;;;;;;;17.87;7.53;;;3.20;81.30;;;;;;4350139;32;75736;-50
2021/11/30 08:55:25;;;;;;;20.80;8.57;;;3.00;83.60;;;;;;4354946;32;20437;-46
2021/11/30 08:57:52;;;;;;;24.13;7.73;;;2.90;84.00;;;;;;4274314;32;163289;-40
2021/11/30 09:29:57;;;;;;;4.20;2.55;;;2.20;98.20;;;;;;2505736;56;20331;-38
2021/11/30 09:32:30;;;;;;;10.07;3.55;;;2.30;97.30;;;;;;2715100;52;20312;-37
2021/11/30 09:35:02;;;;;;;13.95;3.60;;;2.20;98.00;;;;;;2712100;46;20121;-42
2021/11/30 09:37:39;;;;;;;16.83;4.60;;;2.20;98.70;;;;;;2692190;52;20639;-42
2021/11/30 09:40:14;;;;;;;29.83;7.93;;;2.10;98.60;;;;;;2695732;53;20148;-40
2021/11/30 09:42:48;;;;;;;34.45;6.43;;;2.10;99.10;;;;;;2696098;53;20618;-35
2021/11/30 09:45:21;;;;;;;21.25;5.60;;;2.10;98.70;;;;;;2695937;53;20074;-39
2021/11/30 09:47:54;;;;;;;19.37;4.87;;;2.00;99.20;;;;;;2698963;52;20073;-37
2021/11/30 09:50:26;;;;;;;19.97;5.30;;;2.00;99.20;;;;;;2701801;52;20076;-36
2021/11/30 09:52:57;;;;;;;24.97;6.17;;;2.00;99.50;;;;;;2702497;52;20154;-36
2021/11/30 09:55:29;;;;;;;27.87;7.80;;;2.00;99.30;;;;;;2702833;52;20425;-37
2021/11/30 09:58:01;;;;;;;27.67;8.73;;;2.00;99.10;;;;;;2703149;52;20069;-43
2021/11/30 10:00:36;;;;;;;24.47;4.80;;;2.00;99.20;;;;;;2703026;52;20099;-40
2021/11/30 10:03:08;;;;;;;62.67;15.30;;;2.00;99.30;;;;;;2703265;52;20528;-48
2021/11/30 10:05:43;;;;;;;25.70;6.53;;;2.00;99.00;;;;;;2707548;52;20077;-46
2021/11/30 10:08:39;;;;;;;20.15;6.45;;;2.10;99.20;;;;;;2708025;52;20067;-40
2021/11/30 10:11:35;;;;;;;23.13;6.53;;;2.10;99.10;;;;;;2698602;52;20134;-40
2021/11/30 10:14:25;;;;;;;16.33;4.78;;;2.10;98.90;;;;;;2703200;52;20075;-36
2021/11/30 10:17:26;;;;;;;28.70;6.60;;;2.10;99.00;;;;;;2702918;52;20096;-35
2021/11/30 10:20:01;;;;;;;20.83;7.33;;;2.10;99.20;;;;;;2703031;52;20065;-33
2021/11/30 10:22:55;;;;;;;49.37;14.37;;;2.10;99.30;;;;;;2707677;52;20103;-33
2021/11/30 10:25:38;;;;;;;39.97;11.10;;;2.10;99.50;;;;;;2707515;52;20073;-36
2021/11/30 10:28:15;;;;;;;73.37;14.33;;;2.00;99.50;;;;;;2702571;52;20065;-37
2021/11/30 10:30:50;;;;;;;20.27;7.07;;;2.10;99.60;;;;;;2702682;52;20065;-34
2021/11/30 10:33:26;;;;;;;;;;;2.10;99.40;;;;;;2707625;52;20432;-34
2021/11/30 10:36:00;;;;;;;31.80;8.53;;;2.10;99.40;;;;;;2702943;52;19933;-40
2021/11/30 10:38:37;;;;;;;18.63;6.67;;;2.10;99.60;;;;;;2703006;52;20069;-36
2021/11/30 10:41:21;;;;;;;34.73;8.50;;;2.10;99.60;;;;;;2699239;52;20115;-52
2021/11/30 10:43:58;;;;;;;30.17;7.23;;;2.10;99.50;;;;;;2694397;53;20118;-35
2021/11/30 10:46:36;;;;;;;14.67;5.20;;;2.10;99.40;;;;;;2699096;52;20560;-46
2021/11/30 10:49:10;;;;;;;38.27;9.37;;;2.20;99.30;;;;;;2693252;53;20088;-45
2021/11/30 10:51:45;;;;;;;29.50;7.97;;;2.20;99.20;;;;;;2697752;53;20073;-41
2021/11/30 10:54:17;;;;;;;54.30;12.63;;;2.20;99.00;;;;;;2693131;53;20419;-39
2021/11/30 10:57:04;;;;;;;29.27;8.00;;;2.20;99.00;;;;;;2697922;53;20489;-37
2021/11/30 10:59:36;;;;;;;24.80;5.40;;;2.20;99.10;;;;;;2697776;53;20073;-38
2021/11/30 11:02:08;;;;;;;46.97;11.27;;;2.20;99.10;;;;;;2697772;53;20070;-44
2021/11/30 11:04:40;;;;;;;34.73;6.53;;;2.20;99.20;;;;;;2693281;53;20078;-46
2021/11/30 11:07:13;;;;;;;45.50;9.43;;;2.20;99.40;;;;;;2693226;53;20108;-48
2021/11/30 11:09:49;;;;;;;20.77;8.33;;;2.20;99.40;;;;;;2692969;53;20121;-43
2021/11/30 11:12:28;;;;;;;68.63;16.83;;;2.20;99.30;;;;;;2693104;53;20070;-44
2021/11/30 11:15:02;;;;;;;22.60;7.75;;;2.30;99.60;;;;;;2693184;53;20123;-44
2021/11/30 11:17:34;;;;;;;38.28;10.93;;;2.20;99.50;;;;;;2693266;53;20593;-38
2021/11/30 11:20:08;;;;;;;41.43;8.73;;;2.20;99.50;;;;;;2697646;53;20460;-46
2021/11/30 11:22:53;;;;;;;30.77;6.90;;;2.20;99.60;;;;;;2693175;53;20073;-41
2021/11/30 11:25:31;;;;;;;38.20;7.97;;;2.20;99.50;;;;;;2693049;53;20080;-44
2021/11/30 11:28:04;;;;;;;37.20;7.93;;;2.20;99.70;;;;;;2697847;53;20079;-46
2021/11/30 11:30:36;;;;;;;53.42;12.00;;;2.20;99.60;;;;;;2697608;53;20125;-40
2021/11/30 11:33:08;;;;;;;19.27;4.77;;;2.30;99.70;;;;;;2688837;53;20064;-36
2021/11/30 11:35:40;;;;;;;15.50;5.77;;;2.20;99.60;;;;;;2697906;53;20073;-37
2021/11/30 11:38:12;;;;;;;30.53;5.83;;;2.30;99.60;;;;;;2697822;53;20070;-38
2021/11/30 11:40:44;;;;;;;55.67;12.93;;;2.30;99.60;;;;;;2688423;53;20073;-36
2021/11/30 11:43:16;;;;;;;23.73;6.07;;;2.20;99.60;;;;;;2688257;53;20065;-47
2021/11/30 11:45:48;;;;;;;24.93;5.87;;;2.30;99.70;;;;;;2688590;53;20065;-37
2021/11/30 11:48:20;;;;;;;37.97;11.10;;;2.20;99.80;;;;;;2692637;53;20066;-37
2021/11/30 11:50:58;;;;;;;52.08;11.05;;;2.30;99.80;;;;;;2693936;52;20128;-44
2021/11/30 11:53:54;;;;;;;18.63;5.63;;;2.30;99.90;;;;;;2698546;53;20089;-42
2021/11/30 11:56:29;;;;;;;33.13;7.90;;;2.30;99.90;;;;;;2698830;53;20073;-41
2021/11/30 11:59:20;;;;;;;22.87;4.63;;;2.30;99.90;;;;;;2698824;53;20092;-46
2021/11/30 12:02:12;;;;;;;39.40;8.77;;;2.30;99.90;;;;;;2703195;52;20532;-42
2021/11/30 12:04:44;;;;;;;7.27;2.60;;;2.30;99.90;;;;;;2694863;53;20115;-50
2021/11/30 12:07:17;;;;;;;20.77;5.23;;;2.40;99.90;;;;;;2698816;53;20521;-42
2021/11/30 12:09:49;;;;;;;52.90;14.20;;;2.40;99.90;;;;;;2698421;53;20061;-43
2021/11/30 12:12:24;;;;;;;6.60;1.83;;;2.50;99.90;;;;;;2698642;53;20076;-42
2021/11/30 12:15:01;;;;;;;35.88;7.03;;;2.50;99.90;;;;;;2698739;53;20072;-41
2021/11/30 12:17:33;;;;;;;19.48;5.88;;;2.50;99.90;;;;;;2703167;53;20132;-39
2021/11/30 12:20:11;;;;;;;12.90;3.37;;;2.60;99.90;;;;;;2698529;53;20145;-35
2021/11/30 12:22:56;;;;;;;24.60;5.03;;;2.70;99.90;;;;;;2698692;53;20076;-37
2021/11/30 12:25:47;;;;;;;16.93;4.33;;;2.70;99.90;;;;;;2698770;53;20065;-40
2021/11/30 12:28:35;;;;;;;12.48;4.85;;;2.70;99.90;;;;;;2698527;53;20081;-38
2021/11/30 12:31:26;;;;;;;23.00;5.63;;;2.70;99.90;;;;;;2694150;53;20069;-35
2021/11/30 12:33:58;;;;;;;21.00;5.13;;;2.70;99.90;;;;;;2694820;53;20146;-39
2021/11/30 12:36:33;;;;;;;30.10;6.93;;;2.70;99.90;;;;;;2698400;53;20077;-35
2021/11/30 12:39:08;;;;;;;26.03;5.70;;;2.70;99.90;;;;;;2703074;52;20162;-37
2021/11/30 12:41:46;;;;;;;16.15;4.40;;;2.70;99.90;;;;;;2698450;53;20136;-38
2021/11/30 12:44:21;;;;;;;43.93;12.60;;;2.70;99.90;;;;;;2698439;53;20096;-39
2021/11/30 12:46:57;;;;;;;33.20;7.10;;;2.80;99.90;;;;;;2697710;53;20453;-36
2021/11/30 12:49:33;;;;;;;32.63;7.33;;;2.90;99.90;;;;;;2696760;53;20069;-41
2021/11/30 12:52:12;;;;;;;26.45;5.18;;;2.90;99.90;;;;;;2692762;53;20077;-36
2021/11/30 12:54:47;;;;;;;23.23;6.33;;;2.90;99.90;;;;;;2692573;53;20142;-37
2021/11/30 12:57:33;;;;;;;29.60;6.60;;;3.00;99.90;;;;;;2692779;53;20536;-39
2021/11/30 13:00:10;;;;;;;65.50;12.82;;;3.10;99.90;;;;;;2692967;53;20089;-37
2021/11/30 13:02:45;;;;;;;40.15;9.43;;;3.10;99.90;;;;;;2697143;53;20081;-38
2021/11/30 13:05:21;;;;;;;24.77;5.45;;;3.20;99.90;;;;;;2692650;53;20073;-35
2021/11/30 13:07:54;;;;;;;37.55;10.32;;;3.20;99.90;;;;;;2692412;53;20088;-37
2021/11/30 13:10:49;;;;;;;68.35;12.77;;;3.30;99.90;;;;;;2692510;53;20133;-38
2021/11/30 13:13:26;;;;;;;58.13;13.32;;;3.30;99.90;;;;;;2692751;53;20617;-36
2021/11/30 13:16:02;;;;;;;44.25;9.82;;;3.40;99.90;;;;;;2692574;53;20113;-36
2021/11/30 13:18:34;;;;;;;88.90;20.48;;;3.40;99.90;;;;;;2692776;53;20579;-37
2021/11/30 13:21:07;;;;;;;32.95;9.23;;;3.40;99.90;;;;;;2692416;53;20178;-35
2021/11/30 13:23:39;;;;;;;92.32;19.08;;;3.40;99.90;;;;;;2688088;53;20066;-36
2021/11/30 13:26:20;;;;;;;35.63;8.65;;;3.40;99.90;;;;;;2692911;53;20081;-41
2021/11/30 13:28:55;;;;;;;92.18;20.40;;;3.40;99.90;;;;;;2692110;53;20460;-38
2021/11/30 13:31:27;;;;;;;87.70;20.10;;;3.40;99.90;;;;;;2692801;53;20492;-35
2021/11/30 13:33:59;;;;;;;36.20;9.73;;;3.50;99.90;;;;;;2692237;53;20074;-33
2021/11/30 13:36:32;;;;;;;59.13;15.13;;;3.50;99.90;;;;;;2696971;53;20084;-34
2021/11/30 13:39:04;;;;;;;83.83;18.17;;;3.60;99.90;;;;;;2693134;53;20069;-35
2021/11/30 13:41:37;;;;;;;32.38;8.45;;;3.70;99.90;;;;;;2692229;53;20069;-34
2021/11/30 13:44:10;;;;;;;48.83;12.98;;;3.70;99.90;;;;;;2692598;53;20463;-34
2021/11/30 13:46:44;;;;;;;68.10;15.73;;;3.80;99.90;;;;;;2697523;53;20066;-37
2021/11/30 13:49:16;;;;;;;87.38;20.58;;;3.80;99.90;;;;;;2702694;52;20700;-34
2021/11/30 13:51:48;;;;;;;58.45;12.48;;;3.90;99.90;;;;;;2698543;53;20069;-36
2021/11/30 13:54:21;;;;;;;82.72;16.63;;;3.90;99.90;;;;;;2698282;53;20131;-36
2021/11/30 13:57:02;;;;;;;83.15;21.65;;;3.90;99.90;;;;;;2698343;53;20194;-35
2021/11/30 13:59:39;;;;;;;68.80;16.42;;;3.90;99.90;;;;;;2698156;53;20639;-34
2021/11/30 14:02:11;;;;;;;97.00;20.67;;;3.90;99.90;;;;;;2698075;53;20444;-36
2021/11/30 14:04:43;;;;;;;84.93;17.48;;;4.00;99.90;;;;;;2698405;53;20130;-33
2021/11/30 14:07:15;;;;;;;67.53;15.68;;;3.90;99.90;;;;;;2698002;53;20104;-34
2021/11/30 14:09:48;;;;;;;88.18;17.33;;;4.00;99.90;;;;;;2698194;53;20084;-34
2021/11/30 14:12:21;;;;;;;54.60;11.50;;;4.00;99.90;;;;;;2698070;53;20061;-35
2021/11/30 14:14:54;;;;;;;81.55;18.63;;;4.00;99.90;;;;;;2689486;53;20124;-38
2021/11/30 14:17:30;;;;;;;70.47;16.17;;;4.10;99.90;;;;;;2699223;53;20065;-32
2021/11/30 14:20:04;;;;;;;72.63;15.48;;;4.00;99.90;;;;;;2698923;53;20124;-34
2021/11/30 14:22:37;;;;;;;96.85;23.80;;;4.00;99.90;;;;;;2698978;53;20061;-34
2021/11/30 14:25:27;;;;;;;89.15;19.83;;;4.10;99.90;;;;;;2699059;53;20130;-39
2021/11/30 14:28:00;;;;;;;38.53;8.73;;;4.10;99.90;;;;;;2698807;53;20061;-34
2021/11/30 14:30:43;;;;;;;82.20;18.73;;;4.10;99.90;;;;;;2703790;52;20138;-36
2021/11/30 14:33:17;;;;;;;75.78;15.95;;;4.10;99.90;;;;;;2698889;53;20134;-34
2021/11/30 14:35:54;;;;;;;107.47;21.45;;;4.20;99.90;;;;;;2703593;53;20073;-36
2021/11/30 14:38:38;;;;;;;79.88;15.65;;;4.10;99.90;;;;;;2698866;53;20079;-33
2021/11/30 14:41:12;;;;;;;89.55;21.38;;;4.20;99.90;;;;;;2698927;53;20073;-38
2021/11/30 14:43:45;;;;;;;61.38;12.35;;;4.20;99.90;;;;;;2699109;53;20081;-35
2021/11/30 14:46:17;;;;;;;74.43;18.33;;;4.20;99.90;;;;;;2698904;53;20076;-35
2021/11/30 14:48:49;;;;;;;55.42;12.32;;;4.20;99.90;;;;;;2692157;53;20137;-33
2021/11/30 14:51:21;;;;;;;106.05;23.65;;;4.30;99.90;;;;;;2687543;53;20073;-37
2021/11/30 14:53:53;;;;;;;109.85;24.33;;;4.30;99.90;;;;;;2682863;53;20129;-57